createdAt,value
2023-08-17T00:00:19.667Z,20.20
2023-08-17T00:01:28.242Z,20.10
2023-08-17T00:02:30.373Z,20.20
2023-08-17T00:03:35.553Z,20.10
2023-08-17T00:05:46.074Z,20.10
2023-08-17T00:06:48.338Z,20.10
2023-08-17T00:07:50.361Z,20.10
2023-08-17T00:08:52.650Z,20.10
2023-08-17T00:09:54.841Z,20.10
2023-08-17T00:10:56.962Z,20.10
2023-08-17T00:11:59.186Z,20.10
2023-08-17T00:13:01.508Z,20.10
2023-08-17T00:14:03.819Z,20.10
2023-08-17T00:15:06.602Z,20.10
2023-08-17T00:16:08.684Z,20.10
2023-08-17T00:17:10.776Z,20.20
2023-08-17T00:18:13.355Z,20.20
2023-08-17T00:19:15.542Z,20.20
2023-08-17T00:20:17.952Z,20.20
2023-08-17T00:21:20.102Z,20.20
2023-08-17T00:22:22.241Z,20.20
2023-08-17T00:23:24.309Z,20.30
2023-08-17T00:24:26.452Z,20.20
2023-08-17T00:25:28.483Z,20.20
2023-08-17T00:26:30.710Z,20.20
2023-08-17T00:27:35.542Z,20.20
2023-08-17T00:28:38.278Z,20.20
2023-08-17T00:29:40.585Z,20.20
2023-08-17T00:30:42.720Z,20.10
2023-08-17T00:31:44.953Z,20.10
2023-08-17T00:32:47.133Z,20.10
2023-08-17T00:33:49.362Z,20.10
2023-08-17T00:34:51.417Z,20.10
2023-08-17T00:35:53.542Z,20.20
2023-08-17T00:36:55.707Z,20.20
2023-08-17T00:37:57.974Z,20.20
2023-08-17T00:39:00.149Z,20.20
2023-08-17T00:40:02.507Z,20.30
2023-08-17T00:41:04.726Z,20.30
2023-08-17T00:42:09.077Z,20.30
2023-08-17T00:43:11.301Z,20.30
2023-08-17T00:44:13.588Z,20.20
2023-08-17T00:45:16.219Z,20.20
2023-08-17T00:46:21.446Z,20.20
2023-08-17T00:47:23.990Z,20.10
2023-08-17T00:48:27.450Z,20.20
2023-08-17T00:49:29.781Z,20.10
2023-08-17T00:50:32.128Z,20.10
2023-08-17T00:51:35.094Z,20.00
2023-08-17T00:52:38.986Z,20.00
2023-08-17T00:53:41.397Z,19.90
2023-08-17T00:54:43.627Z,19.90
2023-08-17T00:55:46.209Z,19.90
2023-08-17T00:56:48.309Z,19.80
2023-08-17T00:57:54.076Z,19.80
2023-08-17T00:58:57.020Z,19.80
2023-08-17T01:00:05.430Z,19.80
2023-08-17T01:01:09.089Z,19.80
2023-08-17T01:02:16.054Z,19.80
2023-08-17T01:03:20.091Z,19.80
2023-08-17T01:04:22.558Z,19.70
2023-08-17T01:05:25.224Z,19.70
2023-08-17T01:06:27.638Z,19.80
2023-08-17T01:07:29.972Z,19.80
2023-08-17T01:08:32.377Z,19.80
2023-08-17T01:09:34.705Z,19.80
2023-08-17T01:11:07.444Z,19.80
2023-08-17T01:12:25.454Z,19.80
2023-08-17T01:13:49.115Z,19.80
2023-08-17T01:15:10.911Z,19.80
2023-08-17T01:16:21.733Z,19.70
2023-08-17T01:17:30.595Z,19.60
2023-08-17T01:18:38.412Z,19.60
2023-08-17T01:19:42.489Z,19.60
2023-08-17T01:20:46.470Z,19.60
2023-08-17T01:21:52.762Z,19.60
2023-08-17T01:23:00.263Z,19.60
2023-08-17T01:24:06.020Z,19.60
2023-08-17T01:25:09.284Z,19.60
2023-08-17T01:26:11.604Z,19.60
2023-08-17T01:27:15.001Z,19.60
2023-08-17T01:28:17.909Z,19.60
2023-08-17T01:29:20.307Z,19.60
2023-08-17T01:30:22.537Z,19.60
2023-08-17T01:31:35.220Z,19.60
2023-08-17T01:32:44.298Z,19.60
2023-08-17T01:33:57.906Z,19.60
2023-08-17T01:35:05.896Z,19.60
2023-08-17T01:36:45.179Z,19.60
2023-08-17T01:37:47.551Z,19.60
2023-08-17T01:38:53.608Z,19.60
2023-08-17T01:39:57.980Z,19.60
2023-08-17T01:41:02.149Z,19.60
2023-08-17T01:42:04.974Z,19.70
2023-08-17T01:43:07.615Z,19.60
2023-08-17T01:44:41.179Z,19.60
2023-08-17T01:45:43.460Z,19.70
2023-08-17T01:46:45.710Z,19.70
2023-08-17T01:47:47.808Z,19.70
2023-08-17T01:48:50.023Z,19.70
2023-08-17T01:49:52.173Z,19.70
2023-08-17T01:50:54.289Z,19.80
2023-08-17T01:51:56.466Z,19.80
2023-08-17T01:52:58.767Z,19.80
2023-08-17T01:54:01.898Z,19.80
2023-08-17T01:55:04.124Z,19.80
2023-08-17T01:56:06.401Z,19.80
2023-08-17T01:57:08.609Z,19.90
2023-08-17T01:58:10.720Z,19.90
2023-08-17T01:59:14.178Z,19.80
2023-08-17T02:00:16.751Z,19.80
2023-08-17T02:01:18.856Z,19.90
2023-08-17T02:02:22.816Z,19.90
2023-08-17T02:03:25.332Z,19.90
2023-08-17T02:04:27.428Z,19.90
2023-08-17T02:05:30.487Z,19.90
2023-08-17T02:06:32.639Z,19.90
2023-08-17T02:07:34.938Z,19.90
2023-08-17T02:08:40.541Z,19.90
2023-08-17T02:09:42.761Z,19.90
2023-08-17T02:10:44.835Z,19.90
2023-08-17T02:11:47.015Z,19.90
2023-08-17T02:12:49.040Z,19.90
2023-08-17T02:13:51.313Z,19.90
2023-08-17T02:14:54.438Z,19.90
2023-08-17T02:15:56.576Z,19.90
2023-08-17T02:16:58.630Z,19.80
2023-08-17T02:18:02.688Z,19.80
2023-08-17T02:19:04.912Z,19.70
2023-08-17T02:20:07.841Z,19.70
2023-08-17T02:21:10.633Z,19.60
2023-08-17T02:22:15.879Z,19.60
2023-08-17T02:23:18.040Z,19.50
2023-08-17T02:24:20.913Z,19.60
2023-08-17T02:25:22.933Z,19.50
2023-08-17T02:26:27.521Z,19.60
2023-08-17T02:27:32.282Z,19.60
2023-08-17T02:28:34.593Z,19.50
2023-08-17T02:29:36.674Z,19.60
2023-08-17T02:30:38.948Z,19.60
2023-08-17T02:31:41.050Z,19.60
2023-08-17T02:32:43.193Z,19.60
2023-08-17T02:33:45.356Z,19.60
2023-08-17T02:34:47.568Z,19.60
2023-08-17T02:35:51.274Z,19.70
2023-08-17T02:36:53.475Z,19.60
2023-08-17T02:37:55.778Z,19.60
2023-08-17T02:38:58.191Z,19.70
2023-08-17T02:40:00.704Z,19.70
2023-08-17T02:41:02.967Z,19.70
2023-08-17T02:42:05.214Z,19.70
2023-08-17T02:43:07.318Z,19.70
2023-08-17T02:44:09.440Z,19.80
2023-08-17T02:45:11.854Z,19.80
2023-08-17T02:46:14.056Z,19.70
2023-08-17T02:47:16.314Z,19.80
2023-08-17T02:48:18.506Z,19.70
2023-08-17T02:49:21.502Z,19.70
2023-08-17T02:50:23.653Z,19.60
2023-08-17T02:51:25.976Z,19.60
2023-08-17T02:52:28.091Z,19.60
2023-08-17T02:53:30.289Z,19.70
2023-08-17T02:54:32.695Z,19.70
2023-08-17T02:55:34.886Z,19.70
2023-08-17T02:56:36.979Z,19.70
2023-08-17T02:57:39.014Z,19.60
2023-08-17T02:58:42.037Z,19.60
2023-08-17T02:59:44.295Z,19.50
2023-08-17T03:00:46.395Z,19.50
2023-08-17T03:01:49.956Z,19.50
2023-08-17T03:02:52.227Z,19.50
2023-08-17T03:03:55.398Z,19.40
2023-08-17T03:04:57.541Z,19.40
2023-08-17T03:05:59.645Z,19.50
2023-08-17T03:07:01.950Z,19.40
2023-08-17T03:08:04.505Z,19.40
2023-08-17T03:09:06.659Z,19.40
2023-08-17T03:10:10.330Z,19.40
2023-08-17T03:11:12.432Z,19.30
2023-08-17T03:12:14.548Z,19.30
2023-08-17T03:13:16.633Z,19.30
2023-08-17T03:14:18.739Z,19.20
2023-08-17T03:15:20.798Z,19.20
2023-08-17T03:16:22.989Z,19.20
2023-08-17T03:17:25.393Z,19.20
2023-08-17T03:18:28.380Z,19.10
2023-08-17T03:19:30.469Z,19.10
2023-08-17T03:20:32.731Z,19.10
2023-08-17T03:21:35.621Z,19.10
2023-08-17T03:22:37.775Z,19.10
2023-08-17T03:23:39.860Z,19.10
2023-08-17T03:24:41.895Z,19.10
2023-08-17T03:25:44.220Z,19.00
2023-08-17T03:26:46.314Z,19.10
2023-08-17T03:27:48.562Z,19.00
2023-08-17T03:28:50.714Z,19.00
2023-08-17T03:29:52.888Z,19.10
2023-08-17T03:30:58.070Z,19.10
2023-08-17T03:32:01.060Z,19.10
2023-08-17T03:33:03.467Z,19.10
2023-08-17T03:34:07.559Z,19.10
2023-08-17T03:35:09.894Z,19.10
2023-08-17T03:36:12.116Z,19.10
2023-08-17T03:37:14.258Z,19.10
2023-08-17T03:38:16.497Z,19.10
2023-08-17T03:39:18.551Z,19.10
2023-08-17T03:40:21.019Z,19.10
2023-08-17T03:41:26.354Z,19.10
2023-08-17T03:42:28.902Z,19.10
2023-08-17T03:43:30.984Z,19.10
2023-08-17T03:44:33.171Z,19.10
2023-08-17T03:45:35.402Z,19.10
2023-08-17T03:47:15.788Z,19.20
2023-08-17T03:48:17.896Z,19.20
2023-08-17T03:49:20.006Z,19.20
2023-08-17T03:50:22.329Z,19.20
2023-08-17T03:51:24.492Z,19.20
2023-08-17T03:52:26.610Z,19.20
2023-08-17T03:53:28.845Z,19.20
2023-08-17T03:54:30.899Z,19.30
2023-08-17T03:55:33.155Z,19.30
2023-08-17T03:56:35.377Z,19.30
2023-08-17T03:57:39.332Z,19.30
2023-08-17T03:58:43.664Z,19.30
2023-08-17T03:59:45.896Z,19.30
2023-08-17T04:00:52.155Z,19.30
2023-08-17T04:02:00.384Z,19.40
2023-08-17T04:03:02.736Z,19.30
2023-08-17T04:04:05.100Z,19.30
2023-08-17T04:05:07.536Z,19.40
2023-08-17T04:06:11.608Z,19.40
2023-08-17T04:07:21.366Z,19.40
2023-08-17T04:08:23.465Z,19.40
2023-08-17T04:09:25.814Z,19.30
2023-08-17T04:10:29.238Z,19.20
2023-08-17T04:11:31.387Z,19.20
2023-08-17T04:12:33.643Z,19.20
2023-08-17T04:13:35.742Z,19.20
2023-08-17T04:14:37.852Z,19.10
2023-08-17T04:15:39.911Z,19.10
2023-08-17T04:16:42.040Z,19.10
2023-08-17T04:17:44.377Z,19.00
2023-08-17T04:18:47.045Z,19.00
2023-08-17T04:19:49.196Z,19.00
2023-08-17T04:20:53.975Z,19.00
2023-08-17T04:21:57.403Z,19.00
2023-08-17T04:22:59.614Z,19.00
2023-08-17T04:24:02.193Z,19.00
2023-08-17T04:25:06.225Z,19.00
2023-08-17T04:26:08.376Z,19.00
2023-08-17T04:27:12.351Z,19.00
2023-08-17T04:28:16.612Z,19.00
2023-08-17T04:29:19.388Z,19.00
2023-08-17T04:30:21.599Z,19.00
2023-08-17T04:31:30.124Z,19.00
2023-08-17T04:32:36.379Z,19.00
2023-08-17T04:33:39.399Z,19.00
2023-08-17T04:34:43.878Z,19.00
2023-08-17T04:35:49.260Z,19.00
2023-08-17T04:36:51.770Z,19.00
2023-08-17T04:37:54.083Z,19.00
2023-08-17T04:38:56.146Z,19.10
2023-08-17T04:39:58.342Z,19.10
2023-08-17T04:41:00.507Z,19.10
2023-08-17T04:42:04.661Z,19.10
2023-08-17T04:43:08.756Z,19.10
2023-08-17T04:44:10.937Z,19.10
2023-08-17T04:45:13.954Z,19.10
2023-08-17T04:46:19.175Z,19.20
2023-08-17T04:47:21.523Z,19.20
2023-08-17T04:48:23.793Z,19.20
2023-08-17T04:49:26.368Z,19.20
2023-08-17T04:50:28.535Z,19.20
2023-08-17T04:51:31.322Z,19.30
2023-08-17T04:52:33.592Z,19.30
2023-08-17T04:53:35.758Z,19.30
2023-08-17T04:54:37.932Z,19.30
2023-08-17T04:55:40.123Z,19.30
2023-08-17T04:56:44.536Z,19.30
2023-08-17T04:57:46.728Z,19.40
2023-08-17T04:58:49.691Z,19.30
2023-08-17T04:59:53.066Z,19.40
2023-08-17T05:00:55.958Z,19.40
2023-08-17T05:01:59.033Z,19.40
2023-08-17T05:03:01.241Z,19.40
2023-08-17T05:04:09.145Z,19.50
2023-08-17T05:05:11.979Z,19.50
2023-08-17T05:06:14.485Z,19.50
2023-08-17T05:07:16.632Z,19.50
2023-08-17T05:08:18.704Z,19.50
2023-08-17T05:09:20.916Z,19.60
2023-08-17T05:10:23.595Z,19.60
2023-08-17T05:11:25.961Z,19.60
2023-08-17T05:12:28.339Z,19.60
2023-08-17T05:13:30.461Z,19.70
2023-08-17T05:14:36.167Z,19.70
2023-08-17T05:15:38.375Z,19.80
2023-08-17T05:16:43.255Z,19.70
2023-08-17T05:17:45.682Z,19.70
2023-08-17T05:18:48.301Z,19.80
2023-08-17T05:19:52.761Z,19.80
2023-08-17T05:20:55.647Z,19.80
2023-08-17T05:21:58.953Z,19.80
2023-08-17T05:23:01.242Z,19.90
2023-08-17T05:24:05.803Z,19.90
2023-08-17T05:25:08.372Z,19.90
2023-08-17T05:26:13.607Z,20.00
2023-08-17T05:27:16.999Z,20.00
2023-08-17T05:28:19.696Z,20.00
2023-08-17T05:29:21.809Z,20.10
2023-08-17T05:30:23.979Z,20.10
2023-08-17T05:31:27.124Z,20.20
2023-08-17T05:32:29.966Z,20.20
2023-08-17T05:33:32.071Z,20.20
2023-08-17T05:34:34.172Z,20.20
2023-08-17T05:35:36.435Z,20.30
2023-08-17T05:36:38.717Z,20.30
2023-08-17T05:37:41.614Z,20.40
2023-08-17T05:38:43.757Z,20.40
2023-08-17T05:39:46.016Z,20.50
2023-08-17T05:40:48.305Z,20.50
2023-08-17T05:41:50.471Z,20.50
2023-08-17T05:42:52.669Z,20.50
2023-08-17T05:43:54.754Z,20.60
2023-08-17T05:44:56.865Z,20.60
2023-08-17T05:46:02.338Z,20.60
2023-08-17T05:47:35.790Z,20.60
2023-08-17T05:48:37.961Z,20.70
2023-08-17T05:49:40.293Z,20.70
2023-08-17T05:50:45.495Z,20.80
2023-08-17T05:51:47.883Z,20.80
2023-08-17T05:52:50.037Z,20.90
2023-08-17T05:53:52.164Z,20.90
2023-08-17T05:54:54.178Z,21.00
2023-08-17T05:55:56.412Z,21.00
2023-08-17T05:56:58.554Z,21.00
2023-08-17T05:58:00.873Z,21.00
2023-08-17T05:59:03.056Z,21.00
2023-08-17T06:00:05.785Z,21.10
2023-08-17T06:01:15.558Z,21.20
2023-08-17T06:02:17.947Z,21.40
2023-08-17T06:03:20.079Z,21.50
2023-08-17T06:04:22.205Z,21.60
2023-08-17T06:05:27.372Z,21.80
2023-08-17T06:06:29.616Z,22.00
2023-08-17T06:07:31.719Z,22.20
2023-08-17T06:08:34.270Z,22.40
2023-08-17T06:09:36.406Z,22.60
2023-08-17T06:10:38.564Z,22.70
2023-08-17T06:11:40.617Z,22.90
2023-08-17T06:12:42.676Z,23.00
2023-08-17T06:13:44.946Z,23.10
2023-08-17T06:14:47.219Z,23.30
2023-08-17T06:15:49.651Z,23.40
2023-08-17T06:16:51.869Z,23.50
2023-08-17T06:17:54.053Z,23.60
2023-08-17T06:18:56.289Z,23.70
2023-08-17T06:19:58.486Z,23.80
2023-08-17T06:21:00.555Z,23.90
2023-08-17T06:22:02.642Z,24.00
2023-08-17T06:23:04.961Z,24.00
2023-08-17T06:24:07.443Z,24.00
2023-08-17T06:25:09.900Z,24.10
2023-08-17T06:26:12.050Z,24.10
2023-08-17T06:27:16.669Z,24.20
2023-08-17T06:28:18.867Z,24.30
2023-08-17T06:29:20.932Z,24.40
2023-08-17T06:30:23.074Z,24.60
2023-08-17T06:31:28.799Z,24.50
2023-08-17T06:32:33.840Z,24.70
2023-08-17T06:33:35.903Z,24.80
2023-08-17T06:34:38.143Z,24.90
2023-08-17T06:35:40.293Z,25.10
2023-08-17T06:36:42.415Z,25.20
2023-08-17T06:37:44.626Z,25.30
2023-08-17T06:38:46.792Z,25.50
2023-08-17T06:39:48.955Z,25.50
2023-08-17T06:40:52.252Z,25.70
2023-08-17T06:41:54.877Z,25.80
2023-08-17T06:42:57.011Z,25.90
2023-08-17T06:43:59.316Z,26.10
2023-08-17T06:45:01.449Z,26.20
2023-08-17T06:46:03.624Z,26.40
2023-08-17T06:47:05.776Z,26.50
2023-08-17T06:48:07.995Z,26.50
2023-08-17T06:49:12.157Z,26.60
2023-08-17T06:50:14.285Z,26.60
2023-08-17T06:51:16.416Z,26.70
2023-08-17T06:52:18.563Z,26.80
2023-08-17T06:53:20.773Z,27.00
2023-08-17T06:54:22.914Z,27.10
2023-08-17T06:55:25.629Z,27.20
2023-08-17T06:56:27.753Z,27.20
2023-08-17T06:57:30.269Z,27.30
2023-08-17T06:58:32.278Z,27.30
2023-08-17T06:59:34.725Z,27.30
2023-08-17T07:00:37.044Z,27.40
2023-08-17T07:01:39.201Z,27.50
2023-08-17T07:02:53.303Z,27.60
2023-08-17T07:03:58.288Z,27.70
2023-08-17T07:05:00.545Z,27.70
2023-08-17T07:06:02.695Z,27.80
2023-08-17T07:07:05.082Z,27.90
2023-08-17T07:08:08.139Z,27.90
2023-08-17T07:09:13.616Z,27.90
2023-08-17T07:10:15.786Z,27.80
2023-08-17T07:11:17.941Z,27.80
2023-08-17T07:12:20.860Z,27.90
2023-08-17T07:13:22.999Z,28.00
2023-08-17T07:14:26.097Z,28.00
2023-08-17T07:15:28.258Z,28.10
2023-08-17T07:16:30.580Z,28.00
2023-08-17T07:17:32.788Z,28.00
2023-08-17T07:18:35.156Z,28.00
2023-08-17T07:20:47.905Z,28.10
2023-08-17T07:21:50.234Z,28.10
2023-08-17T07:22:52.561Z,28.10
2023-08-17T07:23:56.663Z,28.20
2023-08-17T07:24:58.763Z,28.40
2023-08-17T07:26:00.950Z,28.50
2023-08-17T07:27:03.207Z,28.50
2023-08-17T07:28:05.733Z,28.60
2023-08-17T07:29:07.912Z,28.60
2023-08-17T07:30:10.644Z,28.60
2023-08-17T07:31:13.108Z,28.60
2023-08-17T07:32:15.338Z,28.60
2023-08-17T07:33:17.550Z,28.70
2023-08-17T07:34:19.729Z,28.90
2023-08-17T07:35:21.859Z,29.10
2023-08-17T07:36:24.009Z,29.30
2023-08-17T07:37:32.344Z,29.40
2023-08-17T07:38:34.952Z,29.50
2023-08-17T07:39:37.106Z,29.60
2023-08-17T07:40:39.340Z,29.60
2023-08-17T07:41:41.483Z,29.50
2023-08-17T07:42:43.574Z,29.50
2023-08-17T07:43:45.737Z,29.60
2023-08-17T07:44:48.426Z,29.60
2023-08-17T07:45:59.671Z,29.60
2023-08-17T07:47:01.924Z,29.70
2023-08-17T07:48:04.438Z,29.80
2023-08-17T07:49:13.259Z,30.00
2023-08-17T07:50:22.577Z,30.10
2023-08-17T07:51:24.775Z,30.10
2023-08-17T07:52:26.907Z,30.20
2023-08-17T07:53:31.889Z,30.40
2023-08-17T07:54:35.038Z,30.50
2023-08-17T07:55:37.247Z,30.60
2023-08-17T07:56:39.479Z,30.70
2023-08-17T07:57:41.730Z,30.70
2023-08-17T07:58:43.801Z,30.70
2023-08-17T07:59:45.937Z,30.70
2023-08-17T08:00:48.156Z,30.80
2023-08-17T08:01:50.303Z,30.90
2023-08-17T08:02:53.210Z,31.10
2023-08-17T08:03:55.513Z,31.10
2023-08-17T08:04:57.731Z,31.20
2023-08-17T08:05:59.892Z,31.20
2023-08-17T08:07:02.104Z,31.20
2023-08-17T08:08:04.434Z,31.20
2023-08-17T08:09:07.608Z,31.20
2023-08-17T08:10:10.003Z,31.20
2023-08-17T08:11:12.271Z,31.10
2023-08-17T08:12:14.418Z,31.10
2023-08-17T08:13:17.798Z,31.10
2023-08-17T08:14:20.269Z,31.00
2023-08-17T08:15:22.505Z,31.00
2023-08-17T08:16:24.768Z,30.90
2023-08-17T08:17:28.097Z,30.90
2023-08-17T08:18:30.567Z,31.00
2023-08-17T08:19:33.950Z,31.10
2023-08-17T08:20:36.147Z,31.20
2023-08-17T08:21:39.471Z,31.40
2023-08-17T08:22:41.615Z,31.60
2023-08-17T08:23:43.853Z,31.70
2023-08-17T08:24:46.033Z,31.80
2023-08-17T08:25:48.094Z,31.80
2023-08-17T08:26:52.112Z,31.90
2023-08-17T08:27:54.404Z,32.10
2023-08-17T08:28:56.547Z,32.20
2023-08-17T08:29:58.793Z,32.20
2023-08-17T08:31:07.508Z,32.10
2023-08-17T08:32:09.814Z,32.30
2023-08-17T08:33:11.953Z,32.40
2023-08-17T08:34:14.331Z,32.40
2023-08-17T08:35:16.565Z,32.30
2023-08-17T08:36:18.625Z,32.50
2023-08-17T08:37:20.690Z,32.50
2023-08-17T08:38:22.912Z,32.70
2023-08-17T08:39:27.345Z,32.50
2023-08-17T08:40:31.040Z,32.70
2023-08-17T08:41:33.913Z,32.90
2023-08-17T08:42:36.158Z,32.70
2023-08-17T08:43:38.768Z,32.70
2023-08-17T08:44:40.862Z,32.70
2023-08-17T08:45:45.801Z,32.70
2023-08-17T08:46:49.536Z,32.90
2023-08-17T08:47:53.758Z,32.90
2023-08-17T08:48:56.267Z,33.10
2023-08-17T08:50:03.850Z,33.10
2023-08-17T08:51:09.396Z,33.00
2023-08-17T08:52:18.342Z,33.00
2023-08-17T08:53:29.796Z,33.20
2023-08-17T08:54:37.838Z,33.30
2023-08-17T08:55:46.206Z,33.20
2023-08-17T08:57:03.324Z,33.30
2023-08-17T08:58:08.702Z,33.40
2023-08-17T08:59:11.700Z,33.50
2023-08-17T09:00:14.322Z,33.50
2023-08-17T09:01:17.889Z,33.60
2023-08-17T09:02:20.529Z,33.60
2023-08-17T09:03:23.605Z,33.60
2023-08-17T09:04:26.854Z,33.70
2023-08-17T09:05:29.412Z,33.80
2023-08-17T09:06:32.290Z,33.90
2023-08-17T09:07:35.428Z,33.90
2023-08-17T09:08:37.900Z,33.90
2023-08-17T09:09:40.041Z,34.10
2023-08-17T09:10:42.965Z,34.20
2023-08-17T09:11:45.596Z,34.30
2023-08-17T09:12:49.633Z,34.30
2023-08-17T09:13:54.183Z,34.50
2023-08-17T09:14:57.445Z,34.60
2023-08-17T09:16:07.398Z,34.70
2023-08-17T09:17:10.376Z,34.80
2023-08-17T09:18:14.191Z,34.90
2023-08-17T09:19:16.534Z,34.90
2023-08-17T09:20:47.093Z,34.90
2023-08-17T09:21:51.523Z,35.00
2023-08-17T09:22:54.812Z,35.00
2023-08-17T09:24:00.518Z,35.10
2023-08-17T09:25:03.625Z,35.20
2023-08-17T09:26:12.529Z,35.00
2023-08-17T09:27:15.060Z,34.90
2023-08-17T09:28:18.465Z,35.00
2023-08-17T09:29:22.056Z,34.90
2023-08-17T09:30:24.450Z,35.00
2023-08-17T09:31:26.790Z,35.10
2023-08-17T09:32:33.244Z,35.20
2023-08-17T09:33:36.490Z,35.10
2023-08-17T09:34:38.652Z,35.20
2023-08-17T09:35:43.589Z,35.30
2023-08-17T09:36:48.545Z,35.30
2023-08-17T09:37:50.637Z,35.30
2023-08-17T09:38:53.786Z,35.30
2023-08-17T09:39:57.015Z,35.30
2023-08-17T09:40:59.714Z,35.30
2023-08-17T09:42:02.401Z,35.20
2023-08-17T09:43:05.382Z,35.00
2023-08-17T09:44:07.953Z,35.00
2023-08-17T09:45:10.669Z,35.20
2023-08-17T09:46:13.198Z,35.40
2023-08-17T09:47:15.469Z,35.30
2023-08-17T09:48:21.525Z,35.20
2023-08-17T09:49:26.419Z,35.20
2023-08-17T09:50:28.592Z,35.20
2023-08-17T09:52:06.064Z,35.40
2023-08-17T09:53:08.214Z,35.50
2023-08-17T09:54:24.449Z,35.70
2023-08-17T09:55:27.288Z,35.90
2023-08-17T09:56:29.904Z,36.00
2023-08-17T09:57:33.713Z,35.90
2023-08-17T09:58:36.162Z,36.00
2023-08-17T09:59:39.965Z,36.00
2023-08-17T10:00:50.375Z,36.00
2023-08-17T10:01:56.958Z,36.10
2023-08-17T10:03:07.600Z,36.20
2023-08-17T10:04:12.623Z,36.40
2023-08-17T10:05:22.528Z,36.50
2023-08-17T10:06:29.800Z,36.40
2023-08-17T10:07:34.756Z,36.40
2023-08-17T10:08:48.921Z,36.30
2023-08-17T10:10:07.811Z,36.40
2023-08-17T10:11:11.059Z,36.40
2023-08-17T10:12:17.766Z,36.30
2023-08-17T10:13:47.381Z,36.40
2023-08-17T10:15:00.381Z,36.50
2023-08-17T10:16:31.157Z,36.50
2023-08-17T10:18:00.655Z,36.50
2023-08-17T10:19:14.666Z,36.70
2023-08-17T10:20:18.731Z,36.80
2023-08-17T10:21:41.393Z,36.70
2023-08-17T10:22:49.407Z,36.90
2023-08-17T10:23:54.223Z,36.90
2023-08-17T10:25:00.647Z,36.90
2023-08-17T10:26:04.190Z,36.70
2023-08-17T10:27:07.406Z,36.80
2023-08-17T10:28:12.071Z,36.80
2023-08-17T10:29:17.436Z,36.80
2023-08-17T10:30:19.731Z,36.80
2023-08-17T10:31:22.527Z,36.60
2023-08-17T10:32:26.217Z,36.60
2023-08-17T10:33:30.156Z,36.60
2023-08-17T10:34:32.723Z,36.60
2023-08-17T10:35:36.343Z,36.60
2023-08-17T10:36:39.484Z,36.80
2023-08-17T10:37:42.484Z,36.80
2023-08-17T10:38:44.789Z,36.80
2023-08-17T10:39:48.271Z,36.80
2023-08-17T10:41:17.798Z,37.00
2023-08-17T10:42:34.581Z,37.10
2023-08-17T10:43:54.183Z,37.00
2023-08-17T10:44:56.478Z,37.00
2023-08-17T10:46:18.060Z,37.00
2023-08-17T10:47:22.964Z,37.10
2023-08-17T10:48:29.833Z,37.20
2023-08-17T10:49:32.051Z,37.30
2023-08-17T10:50:35.561Z,37.20
2023-08-17T10:51:37.664Z,37.20
2023-08-17T10:52:39.870Z,37.30
2023-08-17T10:53:45.087Z,37.50
2023-08-17T10:54:47.173Z,37.50
2023-08-17T10:55:52.946Z,37.50
2023-08-17T10:56:55.463Z,37.50
2023-08-17T10:57:57.526Z,37.50
2023-08-17T10:59:03.639Z,37.40
2023-08-17T11:01:40.164Z,37.00
2023-08-17T11:02:53.457Z,37.10
2023-08-17T11:04:34.092Z,37.10
2023-08-17T11:05:38.828Z,37.30
2023-08-17T11:06:41.033Z,37.30
2023-08-17T11:07:45.825Z,37.40
2023-08-17T11:08:57.253Z,37.50
2023-08-17T11:09:59.987Z,37.20
2023-08-17T11:11:10.668Z,37.20
2023-08-17T11:12:27.180Z,37.10
2023-08-17T11:13:34.291Z,37.10
2023-08-17T11:14:36.398Z,37.20
2023-08-17T11:15:43.378Z,37.00
2023-08-17T11:16:48.268Z,37.10
2023-08-17T11:17:50.417Z,37.20
2023-08-17T11:18:53.269Z,37.20
2023-08-17T11:19:55.350Z,37.50
2023-08-17T11:20:58.395Z,37.60
2023-08-17T11:22:01.591Z,37.90
2023-08-17T11:23:04.489Z,37.80
2023-08-17T11:24:10.391Z,37.70
2023-08-17T11:25:12.805Z,37.70
2023-08-17T11:26:21.236Z,37.60
2023-08-17T11:27:23.449Z,37.70
2023-08-17T11:28:26.071Z,37.70
2023-08-17T11:29:33.459Z,37.80
2023-08-17T11:30:37.123Z,37.80
2023-08-17T11:31:41.176Z,37.80
2023-08-17T11:32:43.331Z,37.80
2023-08-17T11:33:48.895Z,37.80
2023-08-17T11:34:51.091Z,37.70
2023-08-17T11:35:55.395Z,37.70
2023-08-17T11:36:59.128Z,37.60
2023-08-17T11:38:02.509Z,37.70
2023-08-17T11:39:10.866Z,37.80
2023-08-17T11:40:14.032Z,37.80
2023-08-17T11:41:18.761Z,37.80
2023-08-17T11:42:21.271Z,37.70
2023-08-17T11:43:23.639Z,37.60
2023-08-17T11:44:26.545Z,37.70
2023-08-17T11:45:28.899Z,37.60
2023-08-17T11:46:31.276Z,37.60
2023-08-17T11:47:34.374Z,37.70
2023-08-17T11:48:37.910Z,37.80
2023-08-17T11:49:41.008Z,37.90
2023-08-17T11:50:44.507Z,38.00
2023-08-17T11:51:46.550Z,38.10
2023-08-17T11:52:48.887Z,38.10
2023-08-17T11:53:51.039Z,38.10
2023-08-17T11:54:57.190Z,37.90
2023-08-17T11:56:00.267Z,37.80
2023-08-17T11:57:05.996Z,38.00
2023-08-17T11:58:10.257Z,38.00
2023-08-17T11:59:19.756Z,38.00
2023-08-17T12:00:23.314Z,38.10
2023-08-17T12:01:25.393Z,38.30
2023-08-17T12:02:29.311Z,38.40
2023-08-17T12:03:33.164Z,38.50
2023-08-17T12:04:35.408Z,38.60
2023-08-17T12:05:37.680Z,38.60
2023-08-17T12:06:45.518Z,38.40
2023-08-17T12:07:48.016Z,38.30
2023-08-17T12:08:50.279Z,38.30
2023-08-17T12:09:52.852Z,38.40
2023-08-17T12:10:55.284Z,38.20
2023-08-17T12:12:01.449Z,38.30
2023-08-17T12:13:03.712Z,38.30
2023-08-17T12:14:12.641Z,38.20
2023-08-17T12:15:15.337Z,38.20
2023-08-17T12:16:19.360Z,38.10
2023-08-17T12:17:22.656Z,38.20
2023-08-17T12:18:24.801Z,38.30
2023-08-17T12:19:26.997Z,38.40
2023-08-17T12:20:29.207Z,38.10
2023-08-17T12:21:32.084Z,38.10
2023-08-17T12:22:34.164Z,38.20
2023-08-17T12:23:36.175Z,38.20
2023-08-17T12:24:39.549Z,38.20
2023-08-17T12:25:41.620Z,38.20
2023-08-17T12:26:44.873Z,38.20
2023-08-17T12:27:49.693Z,38.20
2023-08-17T12:28:51.884Z,38.30
2023-08-17T12:29:54.183Z,38.20
2023-08-17T12:31:04.613Z,38.20
2023-08-17T12:32:08.767Z,38.20
2023-08-17T12:33:11.034Z,38.00
2023-08-17T12:34:13.168Z,38.00
2023-08-17T12:35:15.269Z,37.90
2023-08-17T12:36:17.958Z,37.70
2023-08-17T12:37:22.059Z,37.80
2023-08-17T12:38:26.516Z,37.90
2023-08-17T12:39:28.976Z,37.80
2023-08-17T12:40:31.210Z,37.80
2023-08-17T12:41:33.346Z,37.70
2023-08-17T12:42:35.590Z,37.80
2023-08-17T12:43:38.853Z,37.90
2023-08-17T12:44:41.854Z,38.00
2023-08-17T12:45:43.959Z,38.10
2023-08-17T12:46:46.008Z,38.10
2023-08-17T12:47:48.859Z,38.10
2023-08-17T12:48:51.011Z,38.30
2023-08-17T12:49:53.299Z,38.50
2023-08-17T12:50:55.652Z,38.50
2023-08-17T12:51:57.832Z,38.50
2023-08-17T12:52:59.996Z,38.30
2023-08-17T12:54:02.140Z,38.10
2023-08-17T12:55:04.529Z,37.90
2023-08-17T12:56:06.738Z,38.00
2023-08-17T12:57:11.934Z,37.90
2023-08-17T12:58:15.334Z,37.90
2023-08-17T12:59:17.774Z,38.00
2023-08-17T13:00:19.916Z,38.10
2023-08-17T13:01:22.136Z,38.10
2023-08-17T13:02:25.040Z,38.00
2023-08-17T13:03:27.572Z,38.00
2023-08-17T13:04:29.746Z,38.00
2023-08-17T13:05:31.918Z,38.00
2023-08-17T13:06:47.519Z,38.00
2023-08-17T13:07:51.768Z,38.00
2023-08-17T13:08:54.006Z,38.10
2023-08-17T13:09:56.068Z,38.00
2023-08-17T13:10:58.221Z,38.10
2023-08-17T13:12:00.471Z,38.10
2023-08-17T13:13:02.529Z,38.10
2023-08-17T13:14:04.899Z,37.90
2023-08-17T13:15:07.492Z,37.90
2023-08-17T13:16:12.309Z,37.70
2023-08-17T13:17:15.998Z,37.70
2023-08-17T13:18:18.038Z,37.70
2023-08-17T13:19:20.389Z,37.70
2023-08-17T13:20:25.568Z,37.70
2023-08-17T13:21:27.939Z,37.70
2023-08-17T13:22:30.103Z,37.70
2023-08-17T13:23:32.453Z,37.70
2023-08-17T13:24:34.756Z,37.80
2023-08-17T13:25:37.077Z,37.70
2023-08-17T13:26:39.810Z,37.80
2023-08-17T13:27:42.089Z,37.90
2023-08-17T13:28:44.307Z,37.80
2023-08-17T13:29:46.525Z,37.80
2023-08-17T13:30:48.765Z,37.80
2023-08-17T13:31:50.834Z,37.80
2023-08-17T13:32:53.426Z,37.80
2023-08-17T13:34:03.011Z,37.90
2023-08-17T13:35:05.510Z,37.90
2023-08-17T13:36:07.959Z,37.80
2023-08-17T13:37:10.118Z,37.80
2023-08-17T13:38:15.478Z,37.70
2023-08-17T13:39:17.752Z,37.60
2023-08-17T13:40:19.824Z,37.40
2023-08-17T13:41:22.385Z,37.40
2023-08-17T13:42:24.486Z,37.30
2023-08-17T13:43:26.569Z,37.50
2023-08-17T13:44:28.992Z,37.40
2023-08-17T13:45:31.246Z,37.40
2023-08-17T13:46:33.640Z,37.50
2023-08-17T13:47:36.049Z,37.60